Terminal Aerodrome Forecast
Issued by NWS

Current Version | Previous Version | Text Only | Print | Product List | Glossary On
Versions: 1 2 3 4 5 6 7 8 9 10 11 12 13 14 15 16 17 18 19 20 21 22 23 24 25 26 27 28 29 30 31 32 33 34 35 36 37 38
000
FTPA31 PHFO 280500
TAFLIH
TAF
PHLI 280522Z 2806/2906 06010KT P6SM VCSH SCT025 BKN045
      TEMPO 2806/2808 -SHRA BKN020
     FM280800 30006KT P6SM VCSH SCT025 BKN050
     FM281900 04012KT P6SM SCT025 BKN050=

USA.gov is the U.S. government's official web portal to all federal, state and local government web resources and services.